Time;durP1;ratioP1;P1;durP2;ratioP2;P2;SDS_P1;SDS_P2;PMS_P1;PMS_P2;Temp;Humidity;BMP_temperature;BMP_pressure;BME280_temperature;BME280_humidity;BME280_pressure;Samples;Min_cycle;Max_cycle;Signal;HPM_P1;HPM_P2
2022/02/08 09:15:33;;;;;;;6.95;1.30;;;9.50;99.90;;;;;;5018349;28;20036;-66
2022/02/08 09:26:16;;;;;;;9.43;1.00;;;9.50;99.90;;;;;;5103780;28;20118;-66
2022/02/08 09:28:50;;;;;;;5.80;1.02;;;9.40;99.90;;;;;;5084736;28;20528;-67
2022/02/08 09:31:19;;;;;;;9.27;1.58;;;9.40;99.90;;;;;;5095735;28;20086;-67
2022/02/08 09:33:47;;;;;;;10.35;1.13;;;9.50;99.90;;;;;;5069656;28;20123;-67
2022/02/08 09:36:12;;;;;;;2.67;0.68;;;9.50;99.90;;;;;;5083119;28;20052;-67
2022/02/08 09:38:38;;;;;;;4.13;1.27;;;9.50;99.90;;;;;;5071901;28;20145;-66
2022/02/08 09:41:04;;;;;;;10.20;1.85;;;9.50;99.90;;;;;;5070529;28;20163;-66
2022/02/08 09:43:31;;;;;;;5.03;1.20;;;9.50;99.90;;;;;;5054560;28;20036;-67
2022/02/08 09:46:04;;;;;;;2.67;0.82;;;9.50;99.90;;;;;;5083970;28;20127;-66
2022/02/08 09:48:42;;;;;;;1.77;0.77;;;9.50;99.90;;;;;;5082646;28;20485;-66
2022/02/08 09:51:11;;;;;;;2.40;0.70;;;9.50;99.90;;;;;;5091601;28;20578;-67
2022/02/08 09:53:41;;;;;;;7.10;1.17;;;9.50;99.90;;;;;;5088897;28;20371;-66
2022/02/08 09:56:10;;;;;;;4.32;1.10;;;9.50;99.90;;;;;;5065045;28;20213;-66
2022/02/08 09:58:36;;;;;;;10.80;1.50;;;9.60;99.90;;;;;;5081899;28;20048;-66
2022/02/08 10:01:11;;;;;;;9.43;1.85;;;9.60;99.90;;;;;;5083074;28;20563;-66
2022/02/08 10:03:57;;;;;;;7.63;1.40;;;9.60;99.90;;;;;;5083862;28;20463;-66
2022/02/08 10:06:29;;;;;;;3.75;0.88;;;9.60;99.90;;;;;;5083302;28;20044;-66
2022/02/08 10:08:59;;;;;;;7.78;1.20;;;9.70;99.90;;;;;;5084328;28;20486;-66
2022/02/08 10:11:30;;;;;;;5.38;1.58;;;9.70;99.90;;;;;;5083057;28;20131;-66
2022/02/08 10:14:15;;;;;;;17.80;2.03;;;9.70;99.90;;;;;;5087244;28;20039;-66
2022/02/08 10:22:17;;;;;;;14.80;2.13;;;9.70;99.90;;;;;;5088592;28;20052;-66
2022/02/08 10:24:50;;;;;;;10.77;2.30;;;9.70;99.90;;;;;;5087873;28;20040;-66
2022/02/08 10:30:13;;;;;;;6.25;1.40;;;9.70;99.90;;;;;;5082726;28;20044;-66
2022/02/08 10:38:40;;;;;;;1.73;0.60;;;9.70;99.90;;;;;;5079038;28;20098;-66
2022/02/08 10:41:13;;;;;;;5.68;1.52;;;9.80;99.90;;;;;;5067449;28;20051;-67
2022/02/08 10:43:40;;;;;;;4.82;1.15;;;9.90;99.90;;;;;;5078624;28;20409;-67
2022/02/08 10:46:20;;;;;;;5.25;1.15;;;9.80;99.90;;;;;;5061800;28;20535;-67
2022/02/08 10:48:46;;;;;;;;;;;9.80;99.90;;;;;;5063268;28;20383;-67
2022/02/08 10:51:15;;;;;;;9.43;1.42;;;9.80;99.90;;;;;;5051765;28;19928;-67
2022/02/08 10:53:53;;;;;;;10.30;2.15;;;9.90;99.90;;;;;;5043647;28;20507;-67
2022/02/08 10:56:23;;;;;;;6.60;1.35;;;9.90;99.90;;;;;;5063561;28;20056;-67
2022/02/08 10:58:55;;;;;;;7.25;1.33;;;9.90;99.90;;;;;;5051742;28;20525;-66
2022/02/08 11:01:28;;;;;;;4.65;1.00;;;9.90;99.90;;;;;;5087799;28;20043;-66
2022/02/08 11:04:06;;;;;;;7.78;1.10;;;9.90;99.90;;;;;;5070190;28;20047;-66
2022/02/08 11:06:46;;;;;;;13.43;1.45;;;9.90;99.90;;;;;;5051694;28;20508;-67
2022/02/08 11:09:44;;;;;;;5.47;1.17;;;9.90;99.90;;;;;;5062402;28;20040;-67
2022/02/08 11:22:58;;;;;;;4.65;1.15;;;10.00;99.90;;;;;;5056629;28;20061;-67
2022/02/08 11:25:41;;;;;;;7.13;1.60;;;10.10;99.90;;;;;;5074466;28;20129;-66
2022/02/08 11:28:12;;;;;;;9.90;1.27;;;10.10;99.90;;;;;;5074071;28;20064;-66
2022/02/08 11:30:54;;;;;;;7.47;2.10;;;10.10;99.90;;;;;;5067853;28;20041;-67
2022/02/08 11:50:47;;;;;;;7.85;1.65;;;10.10;99.90;;;;;;5067620;28;20152;-67
2022/02/08 12:01:20;;;;;;;8.60;1.57;;;10.20;99.90;;;;;;5067979;28;20052;-67
2022/02/08 12:07:18;;;;;;;19.95;2.63;;;10.20;99.90;;;;;;5068003;28;20135;-67
2022/02/08 12:09:43;;;;;;;3.95;0.90;;;10.20;99.90;;;;;;5075856;28;20044;-66
2022/02/08 14:05:58;;;;;;;10.73;1.27;;;9.60;99.90;;;;;;5089302;28;20089;-68
2022/02/08 14:16:45;;;;;;;15.88;3.00;;;9.50;99.90;;;;;;5025344;28;20053;-68
2022/02/08 14:19:30;;;;;;;11.07;1.45;;;9.60;99.90;;;;;;5065083;28;20063;-68
2022/02/08 14:22:19;;;;;;;18.02;2.90;;;9.50;99.90;;;;;;5072560;28;20054;-68
2022/02/08 14:30:25;;;;;;;12.65;1.83;;;9.50;99.90;;;;;;5057651;28;20044;-68
2022/02/08 14:33:22;;;;;;;22.95;4.13;;;9.50;99.90;;;;;;5054215;28;20420;-68
2022/02/08 14:57:34;;;;;;;8.88;1.50;;;9.40;99.90;;;;;;5084427;28;20048;-68
2022/02/08 15:08:56;;;;;;;12.45;2.28;;;9.30;99.90;;;;;;5078136;28;20040;-65
2022/02/08 15:12:00;;;;;;;3.72;0.90;;;9.30;99.90;;;;;;5047653;28;20085;-66
2022/02/08 15:14:27;;;;;;;30.45;3.75;;;9.20;99.90;;;;;;5047481;28;20052;-66
2022/02/08 15:16:56;;;;;;;12.95;2.00;;;9.30;99.90;;;;;;5040540;28;20066;-66
2022/02/08 15:19:22;;;;;;;10.13;1.93;;;9.30;99.90;;;;;;5085161;28;20040;-66
2022/02/08 15:21:48;;;;;;;7.82;1.27;;;9.30;99.90;;;;;;5083170;28;20360;-66
2022/02/08 15:24:14;;;;;;;20.83;2.60;;;9.30;99.90;;;;;;5053842;28;20044;-66
2022/02/08 15:26:46;;;;;;;19.15;2.50;;;9.30;99.90;;;;;;5030717;28;20044;-66
2022/02/08 15:29:12;;;;;;;16.80;2.50;;;9.30;99.90;;;;;;5048365;28;20530;-66
2022/02/08 15:31:39;;;;;;;23.33;2.45;;;9.20;99.90;;;;;;5069985;28;20043;-66
2022/02/08 15:34:04;;;;;;;5.80;1.02;;;9.20;99.90;;;;;;5053744;28;20097;-66
2022/02/08 15:36:36;;;;;;;13.13;2.20;;;9.20;99.90;;;;;;5071246;28;20036;-66
2022/02/08 15:39:07;;;;;;;17.35;2.28;;;9.20;99.90;;;;;;5084182;28;20051;-66
2022/02/08 15:41:39;;;;;;;18.48;2.13;;;9.20;99.90;;;;;;5084030;28;20047;-66
2022/02/08 15:44:26;;;;;;;19.38;4.20;;;9.20;99.90;;;;;;5084266;28;20131;-66
2022/02/08 15:46:53;;;;;;;17.88;2.88;;;9.10;99.90;;;;;;5061329;28;20052;-66
2022/02/08 15:49:19;;;;;;;15.15;2.40;;;9.10;99.90;;;;;;5051458;28;20051;-67
2022/02/08 15:51:55;;;;;;;25.23;3.50;;;9.10;99.90;;;;;;5083402;28;20059;-66
2022/02/08 15:54:34;;;;;;;3.30;0.85;;;9.10;99.90;;;;;;5064433;28;20098;-66
2022/02/08 16:08:26;;;;;;;16.60;2.78;;;9.10;99.90;;;;;;5066694;28;20040;-67
2022/02/08 16:17:39;;;;;;;26.02;3.53;;;9.00;99.90;;;;;;5083384;28;20048;-67
2022/02/08 16:56:18;;;;;;;22.52;2.95;;;8.90;99.90;;;;;;5057908;28;20055;-67
2022/02/08 16:58:55;;;;;;;18.30;1.98;;;8.90;99.90;;;;;;5066090;28;20051;-66
2022/02/08 17:01:27;;;;;;;24.48;2.83;;;8.90;99.90;;;;;;5056940;28;20048;-66
2022/02/08 17:03:58;;;;;;;22.35;2.90;;;8.90;99.90;;;;;;5062373;28;20052;-67
2022/02/08 17:06:28;;;;;;;17.67;2.53;;;8.90;99.90;;;;;;5050821;28;20050;-67
2022/02/08 17:09:07;;;;;;;22.38;2.67;;;9.00;99.90;;;;;;5066048;28;20460;-66
2022/02/08 17:11:46;;;;;;;18.30;2.13;;;9.00;99.90;;;;;;5083309;28;20110;-66
2022/02/08 17:17:22;;;;;;;21.45;2.05;;;9.00;99.90;;;;;;5066243;28;20444;-66
2022/02/08 17:45:46;;;;;;;20.70;3.35;;;8.90;99.90;;;;;;5088617;28;20047;-66
2022/02/08 17:47:51;;;;;;;17.92;3.00;;;8.90;99.90;;;;;;5063308;28;20089;-66
2022/02/08 17:50:19;;;;;;;20.98;3.08;;;8.90;99.90;;;;;;5071422;28;20035;-66
2022/02/08 17:52:56;;;;;;;17.08;2.92;;;8.90;99.90;;;;;;5054253;28;20474;-66
2022/02/08 17:55:23;;;;;;;17.15;2.55;;;8.90;99.90;;;;;;5054201;28;20421;-66
2022/02/08 17:57:50;;;;;;;20.63;3.15;;;8.90;99.90;;;;;;5069890;28;20044;-66
2022/02/08 18:00:16;;;;;;;19.50;2.95;;;8.80;99.90;;;;;;5070996;28;20122;-66
2022/02/08 18:02:44;;;;;;;22.48;4.03;;;8.90;99.90;;;;;;5087277;28;20044;-67
2022/02/08 18:05:14;;;;;;;21.48;3.63;;;8.80;99.90;;;;;;5070728;28;20055;-66
2022/02/08 18:07:40;;;;;;;;;;;8.80;99.90;;;;;;5062944;28;20047;-66
2022/02/08 18:10:09;;;;;;;25.50;3.30;;;8.80;99.90;;;;;;5072139;28;20328;-66
2022/02/08 18:12:37;;;;;;;19.38;3.03;;;8.80;99.90;;;;;;5065118;28;20506;-67
2022/02/08 18:15:08;;;;;;;19.35;3.15;;;8.80;99.90;;;;;;5061197;28;20660;-66
2022/02/08 18:18:01;;;;;;;19.80;2.70;;;8.80;99.90;;;;;;5071425;28;20072;-66
2022/02/08 18:20:53;;;;;;;20.98;3.90;;;8.80;99.90;;;;;;5066852;28;20040;-67
2022/02/08 18:57:28;;;;;;;20.17;3.85;;;8.80;99.90;;;;;;5067022;28;20051;-68
2022/02/08 19:14:16;;;;;;;25.27;3.35;;;8.80;99.90;;;;;;5085416;28;20108;-68
2022/02/08 19:19:57;;;;;;;27.58;3.72;;;8.80;99.90;;;;;;5053532;28;20067;-68
2022/02/08 19:22:25;;;;;;;21.45;3.45;;;8.80;99.90;;;;;;5063271;28;20131;-68
2022/02/08 19:25:29;;;;;;;21.98;4.32;;;8.80;99.90;;;;;;5067633;28;20467;-68
2022/02/08 19:27:57;;;;;;;29.50;4.53;;;8.70;99.90;;;;;;5067366;28;20386;-69
2022/02/08 19:30:24;;;;;;;27.08;3.90;;;8.80;99.90;;;;;;5068202;28;20054;-68
2022/02/08 19:32:51;;;;;;;20.40;4.13;;;8.80;99.90;;;;;;5083901;28;20119;-68
2022/02/08 19:35:17;;;;;;;30.05;6.00;;;8.70;99.90;;;;;;5079532;28;20040;-68
2022/02/08 19:37:46;;;;;;;28.23;5.03;;;8.70;99.90;;;;;;5052003;28;20036;-68
2022/02/08 19:40:13;;;;;;;33.78;5.43;;;8.70;99.90;;;;;;5057301;28;20123;-68
2022/02/08 19:42:38;;;;;;;25.45;4.97;;;8.70;99.90;;;;;;5064208;28;20105;-68
2022/02/08 19:45:15;;;;;;;22.50;4.30;;;8.70;99.90;;;;;;5085517;28;20486;-67
2022/02/08 19:47:41;;;;;;;24.65;3.78;;;8.70;99.90;;;;;;5053693;28;20384;-69
2022/02/08 19:50:08;;;;;;;17.88;3.72;;;8.70;99.90;;;;;;5051708;28;20050;-68
2022/02/08 19:52:35;;;;;;;19.40;4.10;;;8.70;99.90;;;;;;5083580;28;20051;-69
2022/02/08 19:55:21;;;;;;;23.27;4.18;;;8.70;99.90;;;;;;5080637;28;20472;-68
2022/02/08 19:58:07;;;;;;;26.38;3.55;;;8.70;99.90;;;;;;5084541;28;20052;-68
2022/02/08 20:00:57;;;;;;;12.05;3.58;;;8.70;99.90;;;;;;5072470;28;20075;-68
2022/02/08 20:03:30;;;;;;;13.60;2.97;;;8.70;99.90;;;;;;5075852;28;20032;-68
2022/02/08 20:06:08;;;;;;;26.77;4.90;;;8.70;99.90;;;;;;5070360;28;20039;-68
2022/02/08 20:08:34;;;;;;;31.23;5.10;;;8.70;99.90;;;;;;5066429;28;20048;-68
2022/02/08 20:11:00;;;;;;;34.20;5.22;;;8.70;99.90;;;;;;5054643;28;20040;-68
2022/02/08 20:13:28;;;;;;;22.05;4.22;;;8.60;99.90;;;;;;5066025;28;20048;-68
2022/02/08 20:15:57;;;;;;;34.78;5.30;;;8.70;99.90;;;;;;5052478;28;20482;-68
2022/02/08 20:18:24;;;;;;;19.73;3.88;;;8.60;99.90;;;;;;5055162;28;20372;-68
2022/02/08 20:21:29;;;;;;;25.30;4.05;;;8.60;99.90;;;;;;5054760;28;20059;-68
2022/02/08 20:23:58;;;;;;;21.92;4.30;;;8.60;99.90;;;;;;5063634;28;20040;-68
2022/02/08 20:26:30;;;;;;;29.70;4.10;;;8.60;99.90;;;;;;5057277;28;20080;-68
2022/02/08 20:29:22;;;;;;;27.75;5.50;;;8.60;99.90;;;;;;5057682;28;20056;-68
2022/02/08 20:32:25;;;;;;;24.73;5.10;;;8.60;99.90;;;;;;5052791;28;20037;-68
2022/02/08 20:34:51;;;;;;;28.45;4.57;;;8.60;99.90;;;;;;5065586;28;20116;-68
2022/02/08 20:37:17;;;;;;;27.58;5.25;;;8.60;99.90;;;;;;5054090;28;20048;-68
2022/02/08 20:39:43;;;;;;;25.45;5.00;;;8.60;99.90;;;;;;5047359;28;20087;-68
2022/02/08 20:42:10;;;;;;;13.75;3.20;;;8.60;99.90;;;;;;5048008;28;20087;-68
2022/02/08 20:44:38;;;;;;;30.80;5.90;;;8.60;99.90;;;;;;5048018;28;20048;-68
2022/02/08 20:47:17;;;;;;;31.35;5.38;;;8.50;99.90;;;;;;5033456;28;20041;-68
2022/02/08 20:49:44;;;;;;;39.13;6.05;;;8.60;99.90;;;;;;5065734;28;20040;-68
2022/02/08 20:52:10;;;;;;;28.13;5.60;;;8.60;99.90;;;;;;5064842;28;20056;-68
2022/02/08 20:54:39;;;;;;;22.23;5.60;;;8.60;99.90;;;;;;5063292;28;20372;-68
2022/02/08 20:57:12;;;;;;;28.38;5.30;;;8.60;99.90;;;;;;5064491;28;20498;-68
2022/02/08 20:59:47;;;;;;;32.92;5.78;;;8.60;99.90;;;;;;5065126;28;20347;-68
2022/02/08 21:02:13;;;;;;;29.00;6.95;;;8.60;99.90;;;;;;5064012;28;20482;-68
2022/02/08 21:04:53;;;;;;;23.40;4.65;;;8.60;99.90;;;;;;5064238;28;20048;-68
2022/02/08 21:07:19;;;;;;;24.15;5.15;;;8.60;99.90;;;;;;5063971;28;20556;-68
2022/02/08 21:09:45;;;;;;;22.33;4.93;;;8.60;99.90;;;;;;5056841;28;20049;-68
2022/02/08 21:12:28;;;;;;;23.25;4.35;;;8.60;99.90;;;;;;5065240;28;20391;-68
2022/02/08 21:14:54;;;;;;;28.58;4.93;;;8.70;99.90;;;;;;5064294;28;20060;-68
2022/02/08 21:17:20;;;;;;;23.05;5.15;;;8.60;99.90;;;;;;5032128;28;20056;-68
2022/02/08 21:19:46;;;;;;;23.38;4.75;;;8.70;99.90;;;;;;5057204;28;20088;-68
2022/02/08 21:22:12;;;;;;;33.60;6.07;;;8.60;99.90;;;;;;5039583;28;20072;-68
2022/02/08 21:24:37;;;;;;;28.85;4.78;;;8.70;99.90;;;;;;5033113;28;20048;-68
2022/02/08 21:28:07;;;;;;;28.77;6.30;;;8.60;99.90;;;;;;5055282;28;20398;-68
2022/02/08 21:43:15;;;;;;;33.10;5.43;;;8.70;99.90;;;;;;5058885;28;20487;-68
2022/02/08 21:49:20;;;;;;;20.80;5.28;;;8.70;99.90;;;;;;5044900;28;20056;-68
2022/02/08 21:51:58;;;;;;;16.95;5.13;;;8.70;99.90;;;;;;5060243;28;20052;-69
2022/02/08 21:54:31;;;;;;;18.58;5.30;;;8.70;99.90;;;;;;5048007;28;20048;-69
2022/02/08 21:56:58;;;;;;;18.85;4.90;;;8.70;99.90;;;;;;5058891;28;20509;-68
2022/02/08 21:59:43;;;;;;;20.98;5.07;;;8.70;99.90;;;;;;5054157;28;20090;-69
2022/02/08 22:02:09;;;;;;;12.00;4.30;;;8.70;99.90;;;;;;5063152;28;20052;-68
2022/02/08 22:04:35;;;;;;;18.40;5.20;;;8.70;99.90;;;;;;5063410;28;20053;-69
2022/02/08 22:07:05;;;;;;;20.55;5.28;;;8.70;99.90;;;;;;5064119;28;20116;-69
2022/02/08 22:09:31;;;;;;;17.67;5.63;;;8.70;99.90;;;;;;5065748;28;20048;-68
2022/02/08 22:33:25;;;;;;;13.80;4.25;;;8.70;99.90;;;;;;5052492;28;20048;-68
2022/02/08 22:35:53;;;;;;;16.75;4.05;;;8.70;99.90;;;;;;5063750;28;20441;-68
2022/02/08 22:38:34;;;;;;;19.23;5.20;;;8.80;99.90;;;;;;5048869;28;20572;-69
2022/02/08 22:41:09;;;;;;;17.20;4.63;;;8.80;99.90;;;;;;5062690;28;20485;-68
2022/02/08 22:43:42;;;;;;;17.77;5.10;;;8.70;99.90;;;;;;5061707;28;20510;-68
2022/02/08 22:46:08;;;;;;;13.70;4.15;;;8.80;99.90;;;;;;5050300;28;20045;-69
2022/02/08 22:48:35;;;;;;;8.52;3.80;;;8.80;99.90;;;;;;5056398;28;20063;-68
2022/02/08 22:51:01;;;;;;;19.13;5.03;;;8.80;99.90;;;;;;5048562;28;20052;-69
2022/02/08 22:53:28;;;;;;;14.48;4.80;;;8.80;99.90;;;;;;5066405;28;20036;-69
2022/02/08 22:55:54;;;;;;;17.98;5.32;;;8.80;99.90;;;;;;5056049;28;20057;-69
2022/02/08 22:58:19;;;;;;;14.93;4.90;;;8.80;99.90;;;;;;5049331;28;20399;-68
2022/02/08 23:00:48;;;;;;;9.65;3.78;;;8.80;99.90;;;;;;5058711;28;20110;-68
2022/02/08 23:03:14;;;;;;;17.63;4.13;;;8.80;99.90;;;;;;5051536;28;20517;-68
2022/02/08 23:05:40;;;;;;;9.75;4.05;;;8.80;99.90;;;;;;5051465;28;20044;-69
2022/02/08 23:08:06;;;;;;;15.10;5.05;;;8.80;99.90;;;;;;5043067;28;20716;-69
2022/02/08 23:11:06;;;;;;;20.65;5.05;;;8.80;99.90;;;;;;5050122;28;20044;-68
2022/02/08 23:13:22;;;;;;;18.45;4.57;;;8.80;99.90;;;;;;5058539;28;20052;-68
2022/02/08 23:37:40;;;;;;;21.38;5.45;;;8.80;99.90;;;;;;5051549;28;20048;-69
2022/02/08 23:40:07;;;;;;;13.20;6.00;;;8.80;99.90;;;;;;5074920;28;20298;-68
2022/02/08 23:42:33;;;;;;;16.55;5.55;;;8.80;99.90;;;;;;5047004;28;20087;-69
2022/02/08 23:44:59;;;;;;;12.63;3.47;;;8.80;99.90;;;;;;5068202;28;20474;-68
2022/02/08 23:47:35;;;;;;;18.60;6.03;;;8.80;99.90;;;;;;5068951;28;20048;-68
2022/02/08 23:50:04;;;;;;;12.02;4.40;;;8.80;99.90;;;;;;5069293;28;20406;-68
2022/02/08 23:52:39;;;;;;;14.20;4.13;;;8.80;99.90;;;;;;5086135;28;20100;-68
2022/02/08 23:55:19;;;;;;;18.52;5.57;;;8.90;99.90;;;;;;5085842;28;20052;-69
2022/02/08 23:57:45;;;;;;;18.92;5.65;;;8.90;99.90;;;;;;5068483;28;20110;-68
